Encantado, Brazil
Current Conditions -  °F | °C
As of 2:00 PM on Sunday 23 Nov 2014 (Local Time) from SBCO Reporting Station
Clear Clear  
Wind Chill: 79°   Ceiling: Unl
Heat Index: 80°   Visibility: 6mi
Dew Point: 57°   Wind: 6mph
Humidity: 47%   Direction: 180°S
Pressure: 29.97"   Gusts: NA
Location:  29.24°S, 51.87°W
Report Text: SBCO 231600Z 18005KT CAVOK 26/14 Q1015
Loading
Personal Weather Stations






























Interactive Weather Map New forecast layout! Learn more

10-Day Weather Forecast

Advertisements
Track Severe Weather on mobile